Terminal Aerodrome Forecast
Issued by NWS Lake Charles, LA

Home | Current Version | Previous Version | Text Only | Print | Product List | Glossary On
Versions: 1 2 3 4 5 6 7 8 9 10 11 12 13
000
FTUS44 KLCH 181700
TAFBPT
TAF
KBPT 181735Z 1818/1918 03006KT P6SM VCSH OVC005
     FM182000 07006KT P6SM VCSH SCT009 OVC040
      TEMPO 1820/1824 BKN009 OVC040
     FM190000 06004KT 6SM BR VCSH OVC008
     FM190800 06007KT 5SM -RA OVC006
      TEMPO 1910/1913 2SM RA SCT006 OVC015
     FM191300 04008KT 3SM RA OVC005=

USA.gov is the U.S. government's official web portal to all federal, state and local government web resources and services.